Terminal Aerodrome Forecast
Issued by NWS

Home | Current Version | Previous Version | Graphics & Text | Print | Product List | Glossary On
Versions: 1 2 3 4 5 6 7 8 9 10 11 12 13 14 15 16 17 18 19 20 21 22
840
FTUS43 KGRB 040223 AAA
TAFATW
TAF AMD
KATW 040223Z 0402/0424 00000KT P6SM OVC025
     FM040400 00000KT P6SM BKN035 OVC080
     FM041300 16005KT P6SM OVC020 PROB30 0414/0415 4SM -SN OVC010
     FM041500 16006KT 2SM -SN OVC010
     FM041700 16007KT 1 1/2SM -SN OVC008
      TEMPO 0419/0423 3/4SM -SN OVC004=

USA.gov is the U.S. government's official web portal to all federal, state and local government web resources and services.